createdAt,value
2022-12-01T00:01:09.586Z,17.10
2022-12-01T00:03:37.651Z,16.63
2022-12-01T00:06:09.664Z,16.85
2022-12-01T00:08:37.280Z,15.82
2022-12-01T00:11:06.865Z,17.20
2022-12-01T00:13:35.405Z,17.15
2022-12-01T00:16:17.977Z,15.70
2022-12-01T00:18:45.180Z,17.85
2022-12-01T00:21:17.017Z,18.10
2022-12-01T00:23:47.377Z,16.85
2022-12-01T00:26:15.653Z,18.40
2022-12-01T00:28:42.969Z,16.65
2022-12-01T00:31:10.883Z,20.00
2022-12-01T00:33:38.837Z,18.35
2022-12-01T00:36:06.738Z,17.42
2022-12-01T00:38:34.569Z,19.23
2022-12-01T00:41:02.462Z,16.98
2022-12-01T00:43:29.707Z,18.52
2022-12-01T00:45:57.506Z,17.38
2022-12-01T00:48:24.851Z,18.05
2022-12-01T00:50:53.764Z,17.52
2022-12-01T00:53:23.668Z,17.23
2022-12-01T00:55:50.809Z,19.92
2022-12-01T00:58:17.872Z,17.40
2022-12-01T01:00:45.067Z,15.98
2022-12-01T01:03:12.495Z,17.08
2022-12-01T01:05:41.128Z,15.10
2022-12-01T01:08:09.852Z,18.38
2022-12-01T01:10:39.651Z,15.70
2022-12-01T01:13:07.004Z,18.02
2022-12-01T01:15:34.709Z,15.88
2022-12-01T01:18:02.429Z,16.05
2022-12-01T01:20:30.007Z,19.55
2022-12-01T01:22:57.366Z,16.48
2022-12-01T01:25:25.529Z,17.70
2022-12-01T01:27:52.748Z,15.57
2022-12-01T01:30:20.330Z,16.08
2022-12-01T01:32:47.513Z,17.63
2022-12-01T01:35:14.756Z,18.27
2022-12-01T01:37:41.846Z,17.23
2022-12-01T01:40:09.738Z,17.80
2022-12-01T01:42:36.961Z,16.80
2022-12-01T01:45:04.474Z,18.42
2022-12-01T01:47:36.233Z,18.35
2022-12-01T01:50:09.837Z,17.33
2022-12-01T01:52:43.273Z,18.40
2022-12-01T01:55:10.949Z,16.67
2022-12-01T01:57:38.892Z,17.52
2022-12-01T02:00:09.363Z,17.73
2022-12-01T02:02:45.484Z,16.45
2022-12-01T02:05:17.250Z,16.45
2022-12-01T02:07:45.687Z,16.60
2022-12-01T02:10:14.677Z,17.67
2022-12-01T02:12:42.782Z,18.33
2022-12-01T02:15:25.914Z,18.75
2022-12-01T02:17:55.000Z,16.98
2022-12-01T02:20:21.932Z,16.95
2022-12-01T02:23:28.787Z,18.08
2022-12-01T02:25:56.107Z,17.35
2022-12-01T02:29:03.372Z,18.60
2022-12-01T02:31:48.650Z,17.83
2022-12-01T02:34:23.187Z,20.30
2022-12-01T02:39:32.423Z,18.27
2022-12-01T02:42:07.858Z,16.50
2022-12-01T02:44:40.442Z,16.98
2022-12-01T02:47:17.297Z,19.77
2022-12-01T02:49:49.821Z,17.63
2022-12-01T02:52:18.952Z,18.73
2022-12-01T02:54:48.615Z,19.25
2022-12-01T02:57:17.032Z,17.95
2022-12-01T02:59:50.098Z,17.38
2022-12-01T03:02:53.199Z,19.23
2022-12-01T03:05:35.949Z,20.17
2022-12-01T03:08:25.822Z,19.60
2022-12-01T03:10:56.860Z,20.10
2022-12-01T03:13:53.967Z,20.92
2022-12-01T03:16:33.904Z,19.77
2022-12-01T03:19:10.208Z,17.80
2022-12-01T03:21:42.295Z,19.70
2022-12-01T03:24:18.516Z,18.88
2022-12-01T03:26:49.630Z,19.10
2022-12-01T03:29:22.004Z,19.45
2022-12-01T03:31:54.766Z,21.05
2022-12-01T03:34:46.073Z,19.98
2022-12-01T03:37:20.774Z,20.67
2022-12-01T03:39:50.314Z,19.55
2022-12-01T03:42:23.828Z,19.35
2022-12-01T03:44:54.705Z,19.77
2022-12-01T03:47:25.250Z,20.23
2022-12-01T03:49:54.207Z,19.73
2022-12-01T03:52:42.264Z,18.75
2022-12-01T03:55:29.299Z,19.98
2022-12-01T03:58:20.690Z,17.85
2022-12-01T04:00:51.640Z,20.23
2022-12-01T04:03:23.131Z,19.70
2022-12-01T04:05:50.481Z,19.20
2022-12-01T04:08:17.748Z,18.33
2022-12-01T04:10:44.881Z,18.85
2022-12-01T04:13:22.431Z,18.08
2022-12-01T04:15:52.538Z,20.63
2022-12-01T04:18:20.517Z,17.85
2022-12-01T04:20:49.237Z,20.15
2022-12-01T04:23:36.620Z,18.77
2022-12-01T04:26:05.575Z,22.73
2022-12-01T04:28:32.868Z,20.27
2022-12-01T04:31:00.035Z,22.92
2022-12-01T04:33:27.106Z,20.38
2022-12-01T04:35:59.917Z,19.45
2022-12-01T04:38:30.759Z,19.05
2022-12-01T04:40:58.470Z,16.88
2022-12-01T04:43:25.678Z,19.60
2022-12-01T04:45:52.626Z,18.00
2022-12-01T04:48:19.749Z,18.02
2022-12-01T04:50:49.662Z,18.52
2022-12-01T04:53:16.847Z,17.83
2022-12-01T04:55:43.884Z,18.52
2022-12-01T04:58:11.041Z,18.15
2022-12-01T05:00:38.165Z,17.95
2022-12-01T05:03:08.556Z,21.02
2022-12-01T05:05:38.287Z,20.02
2022-12-01T05:08:05.399Z,18.60
2022-12-01T05:10:36.547Z,20.85
2022-12-01T05:13:05.700Z,20.95
2022-12-01T05:15:33.208Z,20.23
2022-12-01T05:18:00.885Z,20.10
2022-12-01T05:20:47.885Z,20.13
2022-12-01T05:23:17.083Z,20.83
2022-12-01T05:25:44.313Z,20.83
2022-12-01T05:28:11.502Z,22.02
2022-12-01T05:30:38.754Z,26.38
2022-12-01T05:33:06.109Z,23.77
2022-12-01T05:35:35.094Z,28.23
2022-12-01T05:38:07.560Z,25.30
2022-12-01T05:40:36.568Z,24.52
2022-12-01T05:43:03.843Z,22.67
2022-12-01T05:45:31.425Z,21.02
2022-12-01T05:48:00.062Z,18.77
2022-12-01T05:50:29.774Z,22.60
2022-12-01T05:52:57.328Z,19.50
2022-12-01T05:55:24.556Z,22.60
2022-12-01T05:57:52.324Z,19.50
2022-12-01T06:00:20.034Z,20.65
2022-12-01T06:02:47.629Z,22.50
2022-12-01T06:05:14.956Z,23.75
2022-12-01T06:07:42.638Z,19.35
2022-12-01T06:10:10.733Z,21.60
2022-12-01T06:12:38.734Z,20.13
2022-12-01T06:15:07.265Z,22.55
2022-12-01T06:17:38.630Z,23.48
2022-12-01T06:20:08.415Z,30.73
2022-12-01T06:22:35.485Z,25.38
2022-12-01T06:25:03.431Z,20.88
2022-12-01T06:27:30.517Z,23.85
2022-12-01T06:29:58.718Z,25.30
2022-12-01T06:32:25.749Z,25.00
2022-12-01T06:34:53.101Z,20.67
2022-12-01T06:37:20.193Z,24.38
2022-12-01T06:39:47.583Z,21.98
2022-12-01T06:42:15.482Z,22.58
2022-12-01T06:44:42.660Z,24.60
2022-12-01T06:47:09.671Z,24.98
2022-12-01T06:49:38.122Z,24.33
2022-12-01T06:52:05.857Z,22.88
2022-12-01T06:54:34.572Z,25.90
2022-12-01T06:57:01.837Z,21.27
2022-12-01T06:59:29.171Z,20.00
2022-12-01T07:01:57.930Z,23.63
2022-12-01T07:04:25.036Z,21.55
2022-12-01T07:06:52.250Z,21.23
2022-12-01T07:09:19.428Z,22.17
2022-12-01T07:11:46.571Z,19.48
2022-12-01T07:14:22.967Z,18.75
2022-12-01T07:16:50.127Z,22.30
2022-12-01T07:19:17.280Z,18.30
2022-12-01T07:21:44.528Z,17.75
2022-12-01T07:24:12.829Z,19.17
2022-12-01T07:26:41.442Z,20.02
2022-12-01T07:29:09.773Z,20.88
2022-12-01T07:31:37.780Z,19.65
2022-12-01T07:34:05.818Z,21.85
2022-12-01T07:36:32.994Z,23.20
2022-12-01T07:39:00.860Z,20.27
2022-12-01T07:41:27.884Z,18.85
2022-12-01T07:43:55.741Z,19.85
2022-12-01T07:46:25.936Z,20.83
2022-12-01T07:48:54.667Z,22.35
2022-12-01T07:51:23.608Z,20.00
2022-12-01T07:53:52.253Z,20.73
2022-12-01T07:56:20.267Z,21.48
2022-12-01T07:58:47.393Z,21.45
2022-12-01T08:01:18.142Z,22.08
2022-12-01T08:03:45.757Z,19.98
2022-12-01T08:06:13.032Z,18.98
2022-12-01T08:08:41.887Z,23.23
2022-12-01T08:11:15.490Z,22.13
2022-12-01T08:13:43.596Z,13.15
2022-12-01T08:16:14.394Z,18.95
2022-12-01T08:18:43.031Z,19.70
2022-12-01T08:21:12.778Z,19.95
2022-12-01T08:23:40.481Z,18.85
2022-12-01T08:26:12.794Z,17.85
2022-12-01T08:28:40.410Z,19.73
2022-12-01T08:31:08.755Z,23.42
2022-12-01T08:33:35.966Z,21.75
2022-12-01T08:36:03.955Z,20.65
2022-12-01T08:38:31.470Z,24.25
2022-12-01T08:41:01.447Z,26.00
2022-12-01T08:43:55.821Z,20.17
2022-12-01T08:46:15.793Z,27.23
2022-12-01T08:48:43.246Z,20.58
2022-12-01T08:51:13.370Z,21.90
2022-12-01T08:53:45.643Z,24.52
2022-12-01T08:56:18.481Z,17.63
2022-12-01T08:58:45.894Z,20.63
2022-12-01T09:01:15.298Z,18.58
2022-12-01T09:03:43.409Z,21.63
2022-12-01T09:06:12.740Z,16.88
2022-12-01T09:08:40.132Z,22.90
2022-12-01T09:11:12.104Z,24.88
2022-12-01T09:13:40.635Z,20.23
2022-12-01T09:16:11.611Z,19.48
2022-12-01T09:18:39.416Z,18.73
2022-12-01T09:21:13.294Z,17.42
2022-12-01T09:23:40.886Z,24.45
2022-12-01T09:26:13.419Z,21.58
2022-12-01T09:28:41.174Z,20.50
2022-12-01T09:31:11.092Z,23.70
2022-12-01T09:33:39.356Z,21.80
2022-12-01T09:36:08.272Z,20.60
2022-12-01T09:38:36.572Z,20.65
2022-12-01T09:41:08.013Z,20.55
2022-12-01T09:43:41.803Z,20.80
2022-12-01T09:46:14.673Z,23.97
2022-12-01T09:48:45.782Z,23.15
2022-12-01T09:51:18.256Z,25.13
2022-12-01T09:53:46.437Z,20.52
2022-12-01T09:56:22.264Z,22.73
2022-12-01T09:58:53.946Z,24.40
2022-12-01T10:01:32.099Z,21.48
2022-12-01T10:04:04.003Z,21.60
2022-12-01T10:06:40.330Z,20.85
2022-12-01T10:09:26.000Z,23.33
2022-12-01T10:12:00.344Z,21.40
2022-12-01T10:14:29.937Z,20.10
2022-12-01T10:17:18.148Z,22.30
2022-12-01T10:20:13.328Z,21.33
2022-12-01T10:22:51.364Z,21.58
2022-12-01T10:25:28.961Z,23.40
2022-12-01T10:28:36.164Z,22.30
2022-12-01T10:31:21.172Z,58.88
2022-12-01T10:36:35.824Z,29.20
2022-12-01T10:39:06.962Z,21.08
2022-12-01T10:41:37.463Z,21.60
2022-12-01T10:44:07.180Z,22.10
2022-12-01T10:46:45.203Z,26.23
2022-12-01T10:49:15.277Z,21.70
2022-12-01T10:51:53.805Z,22.88
2022-12-01T10:54:23.533Z,19.38
2022-12-01T10:56:56.068Z,19.98
2022-12-01T10:59:31.528Z,23.13
2022-12-01T11:02:00.268Z,22.33
2022-12-01T11:04:46.320Z,20.45
2022-12-01T11:07:23.877Z,19.75
2022-12-01T11:10:10.914Z,22.13
2022-12-01T11:12:38.190Z,21.77
2022-12-01T11:15:06.193Z,22.70
2022-12-01T11:17:41.228Z,24.65
2022-12-01T11:20:29.248Z,20.65
2022-12-01T11:23:21.511Z,22.83
2022-12-01T11:26:26.468Z,19.30
2022-12-01T11:29:01.459Z,21.67
2022-12-01T11:31:38.055Z,22.00
2022-12-01T11:34:06.039Z,23.00
2022-12-01T11:36:37.752Z,20.95
2022-12-01T11:39:05.549Z,23.25
2022-12-01T11:41:39.419Z,19.00
2022-12-01T11:44:43.240Z,19.50
2022-12-01T11:50:23.950Z,21.23
2022-12-01T11:52:51.368Z,23.35
2022-12-01T11:55:23.100Z,19.92
2022-12-01T11:57:54.535Z,22.15
2022-12-01T12:00:24.089Z,20.85
2022-12-01T12:03:12.323Z,23.08
2022-12-01T12:05:39.615Z,21.08
2022-12-01T12:08:26.622Z,20.77
2022-12-01T12:11:17.292Z,21.33
2022-12-01T12:14:07.876Z,21.60
2022-12-01T12:17:04.599Z,18.55
2022-12-01T12:20:06.668Z,18.80
2022-12-01T12:22:40.292Z,17.85
2022-12-01T12:25:34.030Z,18.05
2022-12-01T12:28:40.889Z,19.48
2022-12-01T12:31:47.745Z,23.17
2022-12-01T12:34:23.255Z,24.10
2022-12-01T12:36:54.829Z,22.98
2022-12-01T12:39:50.222Z,20.02
2022-12-01T12:42:37.254Z,20.40
2022-12-01T12:45:20.153Z,21.13
2022-12-01T12:47:54.444Z,16.95
2022-12-01T12:50:41.553Z,21.50
2022-12-01T12:53:28.615Z,19.40
2022-12-01T12:56:02.418Z,17.85
2022-12-01T12:58:36.516Z,20.45
2022-12-01T13:01:26.142Z,18.05
2022-12-01T13:03:53.216Z,19.95
2022-12-01T13:06:25.299Z,18.15
2022-12-01T13:08:56.890Z,19.77
2022-12-01T13:11:32.602Z,20.45
2022-12-01T13:14:13.297Z,17.63
2022-12-01T13:16:45.383Z,19.92
2022-12-01T13:19:18.214Z,18.70
2022-12-01T13:21:48.414Z,22.95
2022-12-01T13:24:23.367Z,20.08
2022-12-01T13:26:57.444Z,18.15
2022-12-01T13:29:26.235Z,18.67
2022-12-01T13:31:55.137Z,17.90
2022-12-01T13:34:29.271Z,18.17
2022-12-01T13:36:56.773Z,18.73
2022-12-01T13:39:24.993Z,22.38
2022-12-01T13:42:06.338Z,18.13
2022-12-01T13:44:44.214Z,18.30
2022-12-01T13:47:11.319Z,20.00
2022-12-01T13:49:42.350Z,20.88
2022-12-01T13:52:26.341Z,22.10
2022-12-01T13:55:09.034Z,21.17
2022-12-01T13:57:57.043Z,20.55
2022-12-01T14:00:29.911Z,17.55
2022-12-01T14:03:12.882Z,18.40
2022-12-01T14:05:40.160Z,17.50
2022-12-01T14:08:28.165Z,18.70
2022-12-01T14:11:03.153Z,22.95
2022-12-01T14:13:32.584Z,19.83
2022-12-01T14:16:03.369Z,17.45
2022-12-01T14:18:58.676Z,19.92
2022-12-01T14:24:24.349Z,21.45
2022-12-01T14:26:52.655Z,23.00
2022-12-01T14:29:25.765Z,21.17
2022-12-01T14:31:52.963Z,19.48
2022-12-01T14:34:24.669Z,19.25
2022-12-01T14:36:56.188Z,20.23
2022-12-01T14:39:28.247Z,21.60
2022-12-01T14:42:00.712Z,25.20
2022-12-01T14:44:31.442Z,21.63
2022-12-01T14:47:12.415Z,23.92
2022-12-01T14:49:43.906Z,22.92
2022-12-01T14:52:24.391Z,19.40
2022-12-01T14:54:53.107Z,24.67
2022-12-01T14:57:25.754Z,21.15
2022-12-01T15:00:16.281Z,20.80
2022-12-01T15:02:52.793Z,23.55
2022-12-01T15:05:24.292Z,21.85
2022-12-01T15:07:58.819Z,20.00
2022-12-01T15:10:35.639Z,22.73
2022-12-01T15:13:22.600Z,19.85
2022-12-01T15:15:53.141Z,21.17
2022-12-01T15:18:24.540Z,20.33
2022-12-01T15:20:58.812Z,20.70
2022-12-01T15:23:26.163Z,21.52
2022-12-01T15:25:53.317Z,19.00
2022-12-01T15:28:33.904Z,21.70
2022-12-01T15:31:07.495Z,19.50
2022-12-01T15:33:37.888Z,21.48
2022-12-01T15:36:07.312Z,21.02
2022-12-01T15:38:37.904Z,21.52
2022-12-01T15:43:57.734Z,26.42
2022-12-01T15:46:30.704Z,23.52
2022-12-01T15:49:20.791Z,23.88
2022-12-01T15:51:50.319Z,22.75
2022-12-01T15:54:23.163Z,21.27
2022-12-01T15:56:55.064Z,20.90
2022-12-01T15:59:27.737Z,31.17
2022-12-01T16:01:55.230Z,24.00
2022-12-01T16:04:26.329Z,21.63
2022-12-01T16:07:01.195Z,25.85
2022-12-01T16:09:36.719Z,23.30
2022-12-01T16:12:04.089Z,20.23
2022-12-01T16:14:32.318Z,22.75
2022-12-01T16:17:00.280Z,21.88
2022-12-01T16:19:32.783Z,21.17
2022-12-01T16:22:02.237Z,22.65
2022-12-01T16:24:56.845Z,20.35
2022-12-01T16:27:25.899Z,22.08
2022-12-01T16:30:18.695Z,22.55
2022-12-01T16:32:45.860Z,22.48
2022-12-01T16:35:25.172Z,25.52
2022-12-01T16:37:52.815Z,24.50
2022-12-01T16:40:20.184Z,25.00
2022-12-01T16:42:49.992Z,24.23
2022-12-01T16:45:19.044Z,27.00
2022-12-01T16:47:48.193Z,32.05
2022-12-01T16:50:17.839Z,29.52
2022-12-01T16:52:46.216Z,32.10
2022-12-01T16:55:33.603Z,28.33
2022-12-01T16:58:00.886Z,29.02
2022-12-01T17:00:29.552Z,26.23
2022-12-01T17:02:57.622Z,29.38
2022-12-01T17:05:24.852Z,27.05
2022-12-01T17:07:52.285Z,27.85
2022-12-01T17:10:21.306Z,28.92
2022-12-01T17:12:50.584Z,26.17
2022-12-01T17:15:18.040Z,26.30
2022-12-01T17:17:45.343Z,27.92
2022-12-01T17:20:13.363Z,27.38
2022-12-01T17:22:40.435Z,27.92
2022-12-01T17:25:09.908Z,27.58
2022-12-01T17:27:38.208Z,27.27
2022-12-01T17:30:07.031Z,27.08
2022-12-01T17:32:34.272Z,31.25
2022-12-01T17:35:01.439Z,31.98
2022-12-01T17:37:28.640Z,30.17
2022-12-01T17:39:55.913Z,28.95
2022-12-01T17:42:23.249Z,29.80
2022-12-01T17:44:50.576Z,29.70
2022-12-01T17:47:18.334Z,29.65
2022-12-01T17:49:45.503Z,30.58
2022-12-01T17:52:12.656Z,29.63
2022-12-01T17:54:39.840Z,29.23
2022-12-01T17:57:07.554Z,31.70
2022-12-01T17:59:37.058Z,31.15
2022-12-01T18:02:04.737Z,31.23
2022-12-01T18:04:32.687Z,32.33
2022-12-01T18:07:00.726Z,32.40
2022-12-01T18:09:28.025Z,34.75
2022-12-01T18:11:56.486Z,33.30
2022-12-01T18:14:25.662Z,34.10
2022-12-01T18:16:53.428Z,31.77
2022-12-01T18:19:20.814Z,36.63
2022-12-01T18:21:47.978Z,33.72
2022-12-01T18:24:15.077Z,32.83
2022-12-01T18:26:42.197Z,32.08
2022-12-01T18:29:16.718Z,34.08
2022-12-01T18:34:12.467Z,30.55
2022-12-01T18:36:41.395Z,33.70
2022-12-01T18:39:11.242Z,31.02
2022-12-01T18:41:38.516Z,33.70
2022-12-01T18:44:06.268Z,33.92
2022-12-01T18:46:33.726Z,35.50
2022-12-01T18:49:02.872Z,32.75
2022-12-01T18:51:31.583Z,37.72
2022-12-01T18:54:00.443Z,33.45
2022-12-01T18:56:28.412Z,33.15
2022-12-01T18:58:57.158Z,33.83
2022-12-01T19:01:27.799Z,32.20
2022-12-01T19:03:56.409Z,33.83
2022-12-01T19:06:25.237Z,31.33
2022-12-01T19:08:53.201Z,33.67
2022-12-01T19:11:21.010Z,32.83
2022-12-01T19:13:48.223Z,32.63
2022-12-01T19:16:17.989Z,33.42
2022-12-01T19:18:45.588Z,34.88
2022-12-01T19:21:16.165Z,37.70
2022-12-01T19:23:44.516Z,37.22
2022-12-01T19:26:14.383Z,37.97
2022-12-01T19:28:45.668Z,31.83
2022-12-01T19:31:16.698Z,35.78
2022-12-01T19:33:44.561Z,33.83
2022-12-01T19:36:14.747Z,35.83
2022-12-01T19:38:42.505Z,35.13
2022-12-01T19:41:09.764Z,39.88
2022-12-01T19:43:37.788Z,36.08
2022-12-01T19:46:11.114Z,35.08
2022-12-01T19:48:38.716Z,31.40
2022-12-01T19:51:06.517Z,33.65
2022-12-01T19:53:34.338Z,33.45
2022-12-01T19:56:03.350Z,34.00
2022-12-01T19:58:33.387Z,33.15
2022-12-01T20:01:05.462Z,32.67
2022-12-01T20:03:32.890Z,36.05
2022-12-01T20:06:06.205Z,33.65
2022-12-01T20:08:35.844Z,32.25
2022-12-01T20:11:04.608Z,33.47
2022-12-01T20:13:33.926Z,32.83
2022-12-01T20:16:04.825Z,33.78
2022-12-01T20:18:32.723Z,36.47
2022-12-01T20:21:19.842Z,37.00
2022-12-01T20:23:49.872Z,34.63
2022-12-01T20:26:19.176Z,32.35
2022-12-01T20:28:49.876Z,37.08
2022-12-01T20:31:20.868Z,34.53
2022-12-01T20:33:49.044Z,33.03
2022-12-01T20:36:16.176Z,35.83
2022-12-01T20:38:43.703Z,34.97
2022-12-01T20:41:11.726Z,34.65
2022-12-01T20:43:39.204Z,35.25
2022-12-01T20:46:06.928Z,38.33
2022-12-01T20:48:34.576Z,35.17
2022-12-01T20:51:04.397Z,34.45
2022-12-01T20:53:32.346Z,38.28
2022-12-01T20:56:03.960Z,34.55
2022-12-01T20:58:36.041Z,35.90
2022-12-01T21:01:13.178Z,35.17
2022-12-01T21:03:43.154Z,34.65
2022-12-01T21:06:12.070Z,36.17
2022-12-01T21:08:41.276Z,40.10
2022-12-01T21:11:42.690Z,37.08
2022-12-01T21:14:30.852Z,37.92
2022-12-01T21:17:09.670Z,31.90
2022-12-01T21:20:02.688Z,36.25
2022-12-01T21:22:31.110Z,36.03
2022-12-01T21:25:10.646Z,34.60
2022-12-01T21:27:37.930Z,36.65
2022-12-01T21:30:17.439Z,35.05
2022-12-01T21:32:45.689Z,35.90
2022-12-01T21:35:18.654Z,36.17
2022-12-01T21:37:47.296Z,38.13
2022-12-01T21:40:19.514Z,37.20
2022-12-01T21:42:47.319Z,37.22
2022-12-01T21:45:33.106Z,37.97
2022-12-01T21:48:15.003Z,39.25
2022-12-01T21:50:42.265Z,37.75
2022-12-01T21:53:15.119Z,33.67
2022-12-01T21:55:44.115Z,35.97
2022-12-01T21:58:17.664Z,37.10
2022-12-01T22:00:46.432Z,35.88
2022-12-01T22:03:38.201Z,35.17
2022-12-01T22:06:31.978Z,40.97
2022-12-01T22:09:02.876Z,36.38
2022-12-01T22:11:31.578Z,38.45
2022-12-01T22:14:09.706Z,41.10
2022-12-01T22:16:42.822Z,39.55
2022-12-01T22:19:23.394Z,38.00
2022-12-01T22:22:01.839Z,41.38
2022-12-01T22:24:48.757Z,37.08
2022-12-01T22:27:36.759Z,36.40
2022-12-01T22:30:08.566Z,38.80
2022-12-01T22:32:58.757Z,38.45
2022-12-01T22:35:28.142Z,40.60
2022-12-01T22:38:29.594Z,37.08
2022-12-01T22:41:09.375Z,38.35
2022-12-01T22:43:43.167Z,34.90
2022-12-01T22:46:32.944Z,36.55
2022-12-01T22:49:01.203Z,36.08
2022-12-01T22:51:31.886Z,37.75
2022-12-01T22:54:21.087Z,32.20
2022-12-01T22:56:51.333Z,35.33
2022-12-01T22:59:23.363Z,36.70
2022-12-01T23:01:57.159Z,41.10
2022-12-01T23:04:27.070Z,28.33
2022-12-01T23:06:57.222Z,37.22
2022-12-01T23:09:29.638Z,38.53
2022-12-01T23:12:12.242Z,39.38
2022-12-01T23:14:44.333Z,38.85
2022-12-01T23:17:24.091Z,39.35
2022-12-01T23:19:53.311Z,37.72
2022-12-01T23:22:20.750Z,44.83
2022-12-01T23:24:47.770Z,48.38
2022-12-01T23:27:17.651Z,56.85
2022-12-01T23:29:44.804Z,50.58
2022-12-01T23:32:12.512Z,47.95
2022-12-01T23:34:39.663Z,44.95
2022-12-01T23:37:24.720Z,37.20
2022-12-01T23:39:51.791Z,39.42
2022-12-01T23:42:18.917Z,40.03
2022-12-01T23:44:46.056Z,38.15
2022-12-01T23:47:25.009Z,39.47
2022-12-01T23:49:59.849Z,38.67
2022-12-01T23:52:35.401Z,36.72
2022-12-01T23:55:14.509Z,39.05
2022-12-01T23:57:41.736Z,39.17
